Latest Weather Observations for Horsham

IDV60801

Issued at 8:02 pm EST Saturday 1 October 2016 (issued every 30 minutes, with the page automatically refreshed every 10 minutes)

About weather observations | Map of weather stations | Latest weather observations for VIC | Other Formats
Station Details ID: 079100 Name: HORSHAM AERODROME Lat: -36.67 Lon: 142.17 Height: 133.8 m
Data from the previous 72 hours. | See also: Recent months at Horsham
Date/Time
EST
Temp
°C
App
Temp
°C
Dew
Point
°C
Rel
Hum
%
Delta-T
°C
Wind Press
QNH
hPa
Press
MSL
hPa
Rain since
9am
mm
Dir  Spd
km/h
Gust
km/h
Spd
kts
Gust
kts
01/08:00pm 8.1 4.5 6.9 92 0.6 NE 15 17 8 9 1006.5 1006.4 0.2
01/07:30pm 8.6 5.5 7.4 92 0.6 NNE 13 15 7 8 1006.6 1006.5 0.2
01/07:00pm 9.6 6.6 7.7 88 0.9 N 13 17 7 9 1006.2 1006.1 0.2
01/06:30pm 10.8 8.3 8.4 85 1.2 NNW 11 13 6 7 1006.5 1006.4 0.2
01/06:00pm 13.1 11.1 8.8 75 2.2 NW 9 11 5 6 1006.3 1006.2 0.2
01/05:30pm 13.4 10.5 8.3 71 2.6 NW 13 15 7 8 1006.2 1006.1 0.2
01/05:00pm 14.7 12.1 7.7 63 3.5 NW 11 19 6 10 1006.2 1006.1 0.2
01/04:30pm 14.3 11.2 7.4 63 3.4 WNW 13 20 7 11 1006.1 1006.0 0.2
01/04:00pm 13.6 9.5 6.2 61 3.6 NW 17 22 9 12 1006.2 1006.1 0.2
01/03:30pm 14.4 9.7 7.7 64 3.3 WNW 22 28 12 15 1006.3 1006.2 0.0
01/03:00pm 13.2 8.4 7.4 68 2.9 NW 22 30 12 16 1006.4 1006.3 0.0
01/02:30pm 13.7 8.2 7.7 67 3.0 NW 26 35 14 19 1006.5 1006.4 0.0
01/02:00pm 13.2 7.5 6.8 65 3.1 NW 26 32 14 17 1006.7 1006.6 0.0
01/01:30pm 13.5 8.3 7.3 66 3.0 NW 24 32 13 17 1006.6 1006.5 0.0
01/01:00pm 13.2 10.4 8.5 73 2.4 W 13 17 7 9 1006.5 1006.4 0.0
01/12:30pm 13.1 9.6 7.3 68 2.8 WNW 15 20 8 11 1006.3 1006.2 0.0
01/12:00pm 12.6 9.0 8.3 75 2.2 W 17 22 9 12 1006.4 1006.3 0.0
01/11:30am 12.5 8.1 7.4 71 2.5 W 20 24 11 13 1006.7 1006.6 0.0
01/11:00am 12.5 8.9 8.2 75 2.1 W 17 22 9 12 1006.8 1006.7 0.0
01/10:30am 11.5 7.3 7.4 76 2.0 W 19 26 10 14 1006.8 1006.7 0.0
01/10:00am 11.3 7.0 7.8 79 1.7 W 20 24 11 13 1006.6 1006.5 0.0
01/09:30am 11.4 6.5 8.3 81 1.5 W 24 32 13 17 1006.6 1006.6 0.0
01/09:16am 11.0 6.0 8.2 83 1.4 W 24 32 13 17 1006.7 1006.7 0.0
01/09:00am 10.6 6.1 8.5 87 1.0 W 22 30 12 16 1006.7 1006.7 3.6
01/08:30am 11.0 6.6 8.9 87 1.0 W 22 32 12 17 1006.4 1006.4 3.6
01/08:20am 10.7 6.2 8.5 86 1.1 W 22 30 12 16 1006.4 1006.4 3.6
01/08:00am 10.6 5.3 8.5 87 1.0 W 26 33 14 18 1006.1 1006.1 3.6
01/07:30am 9.9 4.6 8.3 90 0.8 W 26 37 14 20 1005.3 1005.4 3.6
01/07:00am 8.6 4.8 7.5 93 0.5 W 17 22 9 12 1005.3 1005.4 3.6
01/06:45am 8.6 4.2 7.5 93 0.5 W 20 28 11 15 1005.0 1005.1 3.6
01/06:30am 8.5 3.7 7.4 93 0.5 W 22 32 12 17 1004.8 1004.9 3.6
01/06:00am 8.9 3.4 7.7 92 0.6 W 26 35 14 19 1004.3 1004.4 3.6
01/05:47am 9.1 3.3 7.9 92 0.6 W 28 35 15 19 1004.2 1004.3 3.6
01/05:30am 9.3 3.9 8.1 92 0.6 W 26 33 14 18 1003.9 1004.0 3.6
01/05:00am 9.4 3.7 8.2 92 0.6 W 28 41 15 22 1003.5 1003.6 3.6
01/04:30am 9.5 3.8 8.4 93 0.5 W 28 35 15 19 1003.1 1003.2 3.6
01/04:03am 9.6 3.9 8.5 93 0.5 W 28 46 15 25 1002.8 1002.9 3.6
01/04:00am 9.6 3.9 8.5 93 0.5 W 28 39 15 21 1002.8 1002.9 3.6
01/03:30am 9.7 3.1 8.6 93 0.5 W 33 43 18 23 1002.6 1002.7 3.6
01/03:01am 9.7 3.2 8.9 95 0.4 W 33 43 18 23 1002.2 1002.2 3.6
01/03:00am 9.7 3.2 8.9 95 0.4 W 33 43 18 23 1002.2 1002.2 3.6
01/02:51am 9.8 3.6 9.2 96 0.3 W 32 41 17 22 1002.1 1002.1 3.6
01/02:39am 9.9 3.7 9.3 96 0.3 W 32 43 17 23 1002.1 1002.1 3.6
01/02:30am 9.9 4.1 9.3 96 0.3 W 30 41 16 22 1002.1 1002.1 3.6
01/02:29am 9.9 4.1 9.3 96 0.3 W 30 41 16 22 1002.0 1002.0 3.6
01/02:00am 10.1 5.1 9.5 96 0.3 W 26 33 14 18 1001.8 1001.8 3.6
01/01:30am 10.1 4.7 9.6 97 0.3 W 28 37 15 20 1001.6 1001.6 3.6
01/01:00am 10.2 4.8 9.6 96 0.3 W 28 35 15 19 1001.4 1001.4 3.6
01/12:38am 10.2 4.5 9.7 97 0.3 W 30 41 16 22 1001.2 1001.2 3.6
01/12:30am 10.2 4.9 9.7 97 0.3 W 28 37 15 20 1001.1 1001.1 3.6
01/12:12am 10.3 5.0 9.7 96 0.3 W 28 39 15 21 1001.0 1001.0 3.6
01/12:00am 10.4 4.3 9.8 96 0.3 W 32 41 17 22 1001.0 1001.0 3.6
 
Date/Time
EST
Temp
°C
App
Temp
°C
Dew
Point
°C
Rel
Hum
%
Delta-T
°C
Wind Press
QNH
hPa
Press
MSL
hPa
Rain since
9am
mm
Dir  Spd
km/h
Gust
km/h
Spd
kts
Gust
kts
30/11:37pm 10.4 4.3 9.9 97 0.3 W 32 43 17 23 1000.8 1000.8 3.4
30/11:30pm 10.4 4.2 9.9 97 0.3 W 33 46 18 25 1000.8 1000.8 3.4
30/11:00pm 10.8 5.6 10.3 97 0.3 W 28 35 15 19 1000.7 1000.7 3.2
30/10:57pm 10.8 5.6 10.3 97 0.3 W 28 37 15 20 1000.7 1000.7 3.2
30/10:30pm 11.0 5.8 10.1 94 0.5 W 28 41 15 22 1000.6 1000.6 3.2
30/10:00pm 11.2 5.3 10.3 94 0.5 W 32 41 17 22 1000.4 1000.4 3.2
30/09:30pm 11.2 6.1 10.6 96 0.3 W 28 39 15 21 1000.2 1000.2 3.2
30/09:00pm 11.3 6.3 10.8 97 0.3 W 28 41 15 22 1000.1 1000.1 3.2
30/08:30pm 11.4 7.2 11.1 98 0.2 W 24 35 13 19 1000.0 1000.0 3.2
30/08:14pm 11.5 7.3 11.2 98 0.2 W 24 35 13 19 999.8 999.8 3.0
30/08:00pm 11.5 8.1 11.2 98 0.2 W 20 30 11 16 999.6 999.6 3.0
30/07:58pm 11.6 8.2 11.3 98 0.2 W 20 30 11 16 999.6 999.6 3.0
30/07:40pm 11.6 7.4 11.0 96 0.3 W 24 32 13 17 999.4 999.4 1.8
30/07:30pm 11.7 7.9 11.1 96 0.3 W 22 32 12 17 999.2 999.2 1.4
30/07:00pm 11.8 8.3 11.0 95 0.4 W 20 30 11 16 998.6 998.6 1.4
30/06:56pm 11.8 8.6 11.2 96 0.3 W 19 30 10 16 998.6 998.6 1.4
30/06:39pm 11.8 10.5 11.3 97 0.3 WNW 9 13 5 7 998.2 998.2 1.4
30/06:35pm 11.7 10.4 11.1 96 0.3 WNW 9 13 5 7 998.2 998.2 1.4
30/06:30pm 11.7 10.4 11.1 96 0.3 WNW 9 13 5 7 998.1 998.1 1.4
30/06:12pm 11.8 9.3 10.9 94 0.5 WNW 15 20 8 11 998.0 998.0 0.8
30/06:00pm 12.4 10.3 11.0 91 0.7 WNW 13 17 7 9 997.5 997.6 0.2
30/05:30pm 13.2 11.9 10.0 81 1.7 W 7 11 4 6 997.1 997.2 0.2
30/05:00pm 13.4 11.3 9.8 79 1.9 WSW 11 15 6 8 996.8 996.9 0.2
30/04:30pm 13.8 11.0 10.0 78 2.0 SW 15 20 8 11 996.4 996.5 0.2
30/04:15pm 13.4 11.3 9.8 79 1.9 SW 11 20 6 11 996.3 996.4 0.2
30/04:00pm 13.4 11.1 10.6 83 1.5 SW 13 17 7 9 996.2 996.3 0.2
30/03:41pm 12.3 10.2 9.7 84 1.3 SW 11 20 6 11 996.3 996.4 0.2
30/03:30pm 12.0 10.0 8.8 81 1.6 W 9 13 5 7 996.3 996.4 0.2
30/03:00pm 11.7 10.3 8.7 82 1.5 WNW 6 9 3 5 996.0 996.1 0.2
30/02:51pm 11.5 9.9 8.7 83 1.4 NNW 7 13 4 7 996.0 996.1 0.2
30/02:30pm 11.5 10.1 8.9 84 1.3 N 6 13 3 7 995.6 995.6 0.2
30/02:27pm 11.4 9.8 8.8 84 1.3 N 7 13 4 7 995.6 995.6 0.2
30/02:19pm 11.2 9.4 8.1 81 1.5 NNE 7 11 4 6 995.5 995.5 0.2
30/02:00pm 11.1 9.6 9.0 87 1.1 ENE 7 9 4 5 995.6 995.6 0.2
30/01:54pm 11.1 9.9 9.5 90 0.8 E 6 9 3 5 995.7 995.7 0.2
30/01:43pm 10.6 9.7 9.2 91 0.7 NNW 4 7 2 4 995.7 995.7 0.2
30/01:35pm 10.2 8.8 9.0 92 0.6 NW 6 7 3 4 995.7 995.7 0.2
30/01:30pm 9.9 8.4 8.5 91 0.7 NNW 6 7 3 4 995.7 995.7 0.2
30/01:00pm 10.5 8.7 9.3 92 0.6 NNW 9 13 5 7 995.3 995.3 0.2
30/12:40pm 10.3 7.9 8.7 90 0.8 N 11 17 6 9 995.2 995.2 0.2
30/12:30pm 10.6 8.2 8.5 87 1.0 NNW 11 15 6 8 995.1 995.1 0.2
30/12:08pm 10.1 7.2 8.2 88 0.9 NW 13 17 7 9 995.2 995.2 0.2
30/12:00pm 10.5 7.7 8.4 87 1.0 NW 13 19 7 10 995.2 995.2 0.2
30/11:30am 10.2 6.0 8.3 88 0.9 WNW 20 24 11 13 995.1 995.1 0.2
30/11:00am 10.2 5.7 8.6 90 0.8 WNW 22 30 12 16 995.0 995.0 0.2
30/10:30am 9.7 5.6 8.8 94 0.4 WNW 20 28 11 15 994.9 994.9 0.2
30/10:00am 9.4 5.2 8.2 92 0.6 W 20 26 11 14 995.2 995.2 0.0
30/09:30am 9.3 4.6 7.7 90 0.8 WSW 22 28 12 15 995.4 995.4 0.0
30/09:00am 9.4 5.1 8.0 91 0.7 W 20 28 11 15 995.1 995.1 2.0
30/08:30am 8.7 4.0 7.6 93 0.5 W 22 30 12 16 994.8 994.8 2.0
30/08:00am 7.7 3.4 7.0 95 0.3 W 19 24 10 13 994.5 994.5 2.0
30/07:30am 7.1 3.1 6.7 97 0.2 W 17 22 9 12 994.0 994.0 2.0
30/07:00am 6.3 1.8 6.0 98 0.1 W 19 24 10 13 993.7 993.7 2.0
30/06:30am 5.6 1.3 5.3 98 0.1 W 17 22 9 12 993.2 993.2 2.0
30/06:00am 5.3 1.7 5.2 99 0.0 WSW 13 15 7 8 992.6 992.6 2.0
30/05:30am 4.8 0.7 4.5 98 0.1 WSW 15 20 8 11 992.2 992.2 2.0
30/05:00am 5.2 0.8 4.9 98 0.1 WSW 17 22 9 12 991.5 991.5 2.0
30/04:30am 5.3 1.3 5.0 98 0.1 WSW 15 20 8 11 991.3 991.3 2.0
30/04:00am 5.4 1.1 5.1 98 0.1 WSW 17 22 9 12 990.9 990.9 2.0
30/03:30am 5.3 1.4 5.2 99 0.0 WSW 15 20 8 11 990.4 990.4 2.0
30/03:00am 4.9 0.8 4.6 98 0.1 WSW 15 19 8 10 989.9 990.0 1.8
30/02:30am 4.7 0.2 4.4 98 0.1 WSW 17 19 9 10 989.8 989.9 1.8
30/02:00am 5.0 1.0 4.7 98 0.1 WSW 15 20 8 11 989.8 989.9 1.8
30/01:30am 5.0 0.2 4.7 98 0.1 WSW 19 24 10 13 989.7 989.8 1.8
30/01:00am 4.9 0.5 4.5 97 0.2 WSW 17 20 9 11 989.5 989.5 1.8
30/12:30am 4.9 0.5 4.6 98 0.1 WSW 17 20 9 11 989.2 989.2 1.8
30/12:00am 4.9 1.2 4.6 98 0.1 WSW 13 17 7 9 989.0 989.0 1.8
 
Date/Time
EST
Temp
°C
App
Temp
°C
Dew
Point
°C
Rel
Hum
%
Delta-T
°C
Wind Press
QNH
hPa
Press
MSL
hPa
Rain since
9am
mm
Dir  Spd
km/h
Gust
km/h
Spd
kts
Gust
kts
29/11:30pm 4.9 0.8 4.5 97 0.2 WSW 15 19 8 10 988.6 988.6 1.8
29/11:00pm 5.6 1.7 5.2 97 0.2 WSW 15 20 8 11 988.5 988.5 1.8
29/10:30pm 5.3 1.3 5.0 98 0.1 WSW 15 17 8 9 988.3 988.3 1.8
29/10:00pm 5.6 1.7 5.3 98 0.1 WSW 15 17 8 9 988.3 988.3 1.8
29/09:30pm 6.3 2.2 6.0 98 0.1 WSW 17 22 9 12 988.2 988.2 1.8
29/09:00pm 5.9 2.1 5.6 98 0.1 WSW 15 17 8 9 988.0 988.0 1.8
29/08:30pm 6.0 2.2 5.7 98 0.1 WSW 15 19 8 10 987.6 987.6 1.8
29/08:00pm 6.2 2.8 5.8 97 0.2 SW 13 15 7 8 987.0 987.0 1.4
29/07:30pm 6.8 3.5 6.2 96 0.3 SW 13 15 7 8 986.6 986.6 1.4
29/07:15pm 7.3 4.1 6.7 96 0.3 SW 13 15 7 8 986.5 986.5 1.4
29/07:00pm 7.8 4.3 7.2 96 0.3 SW 15 19 8 10 986.3 986.3 1.4
29/06:44pm 7.8 4.0 7.4 97 0.2 S 17 22 9 12 985.9 985.9 1.4
29/06:30pm 7.9 3.7 7.6 98 0.1 S 19 22 10 12 985.5 985.5 1.4
29/06:00pm 8.2 4.1 7.8 97 0.2 SSE 19 24 10 13 985.0 985.0 1.4
29/05:30pm 8.6 4.5 8.0 96 0.3 SE 19 24 10 13 984.6 984.6 1.2
29/05:04pm 8.9 4.3 8.0 94 0.4 ESE 22 30 12 16 984.1 984.1 1.0
29/05:00pm 9.0 4.0 7.9 93 0.5 ESE 24 30 13 16 984.0 984.0 1.0
29/04:30pm 8.8 4.1 7.6 92 0.6 E 22 30 12 16 984.0 984.0 1.0
29/04:13pm 9.2 3.4 8.1 93 0.5 ENE 28 33 15 18 983.8 983.8 1.0
29/04:00pm 8.9 2.6 7.4 90 0.7 ENE 30 39 16 21 983.8 983.8 1.0
29/03:30pm 9.5 2.7 7.9 90 0.8 NE 33 43 18 23 984.0 984.0 1.0
29/03:26pm 9.3 2.1 7.7 90 0.8 NE 35 43 19 23 984.0 984.0 1.0
29/03:16pm 8.7 1.9 7.0 89 0.8 NE 32 43 17 23 984.0 984.0 1.0
29/03:00pm 8.8 2.5 7.6 92 0.6 NE 30 41 16 22 984.3 984.3 1.0
29/02:30pm 8.7 0.1 6.7 87 0.9 NNE 41 50 22 27 984.6 984.6 0.8
29/02:00pm 9.3 1.9 6.9 85 1.1 NE 35 48 19 26 985.0 985.0 0.8
29/01:30pm 9.7 1.6 7.1 84 1.2 NNE 39 54 21 29 985.5 985.5 0.8
29/01:00pm 10.3 1.9 7.4 82 1.4 NNE 41 54 22 29 986.1 986.1 0.8
29/12:30pm 10.0 2.5 8.1 88 0.9 N 37 52 20 28 986.5 986.5 0.8
29/12:01pm 9.4 2.0 6.7 83 1.3 NNE 35 57 19 31 986.5 986.5 0.4
29/12:00pm 10.3 3.2 6.5 77 1.8 NNE 33 44 18 24 986.6 986.6 0.4
29/11:30am 10.5 3.7 7.6 82 1.4 NNE 33 43 18 23 986.8 986.8 0.4
29/11:00am 9.5 3.5 6.9 84 1.2 NNE 28 39 15 21 987.2 987.2 0.4
29/10:30am 9.0 3.1 7.3 89 0.8 NNE 28 37 15 20 987.7 987.7 0.4
29/10:00am 8.5 2.3 6.0 84 1.2 NNE 28 39 15 21 987.9 987.9 0.0
29/09:30am 9.1 2.4 5.7 79 1.6 N 30 39 16 21 988.1 988.1 0.0
29/09:00am 8.6 1.9 5.4 80 1.5 N 30 37 16 20 988.4 988.4 11.4
29/08:30am 8.5 2.7 6.3 86 1.0 NNE 26 32 14 17 988.6 988.6 11.4
29/08:00am 7.7 1.8 5.8 88 0.9 N 26 35 14 19 988.7 988.7 11.4
29/07:30am 6.6 1.8 5.6 93 0.4 NNE 20 26 11 14 988.6 988.6 11.4
29/07:00am 6.1 0.9 5.4 95 0.3 N 22 26 12 14 988.6 988.6 11.4
29/06:30am 5.3 0.5 4.9 97 0.2 N 19 22 10 12 988.4 988.4 11.4
29/06:00am 5.5 1.1 4.9 96 0.3 N 17 20 9 11 988.3 988.3 11.4
29/05:30am 6.2 1.6 5.5 95 0.3 N 19 20 10 11 988.4 988.4 11.4
29/05:00am 7.2 2.1 6.1 93 0.5 NNW 22 30 12 16 988.2 988.2 11.4
29/04:30am 8.4 2.0 6.9 90 0.7 NW 30 39 16 21 988.2 988.2 11.4
29/04:00am 8.6 3.4 7.4 92 0.6 NNW 24 35 13 19 988.3 988.3 11.4
29/03:30am 8.7 4.0 7.6 93 0.5 NNW 22 30 12 16 987.9 987.9 11.4
29/03:00am 9.2 4.9 8.0 92 0.6 NW 20 28 11 15 987.8 987.8 11.4
29/02:30am 9.4 4.4 8.2 92 0.6 NW 24 33 13 18 988.2 988.2 11.4
29/02:00am 9.9 5.4 8.5 91 0.7 NW 22 33 12 18 988.3 988.3 11.4
29/01:30am 10.5 4.5 8.8 89 0.8 NW 30 43 16 23 988.5 988.5 11.4
29/01:00am 10.7 4.8 9.0 89 0.9 NW 30 44 16 24 988.4 988.4 11.4
29/12:39am 11.2 5.1 9.6 90 0.8 NW 32 44 17 24 988.6 988.6 11.4
29/12:30am 11.8 6.0 10.7 93 0.6 NW 32 54 17 29 988.5 988.5 11.4
29/12:25am 12.0 4.9 10.9 93 0.6 NNW 39 57 21 31 988.5 988.5 11.4
29/12:18am 12.3 4.5 11.2 93 0.6 N 43 57 23 31 988.5 988.5 11.4
29/12:08am 12.2 4.9 11.4 95 0.4 N 41 59 22 32 988.2 988.2 11.4
29/12:00am 12.1 5.9 11.5 96 0.3 N 35 46 19 25 988.4 988.4 11.2
 
Date/Time
EST
Temp
°C
App
Temp
°C
Dew
Point
°C
Rel
Hum
%
Delta-T
°C
Wind Press
QNH
hPa
Press
MSL
hPa
Rain since
9am
mm
Dir  Spd
km/h
Gust
km/h
Spd
kts
Gust
kts
28/11:47pm 12.0 5.3 11.1 94 0.5 NNE 37 46 20 25 988.3 988.3 11.2
28/11:30pm 12.1 4.2 10.8 92 0.7 NE 43 54 23 29 988.5 988.5 11.0
28/11:00pm 12.3 5.5 10.7 90 0.8 NE 37 54 20 29 989.5 989.5 11.0
28/10:59pm 12.2 5.8 10.8 91 0.7 NE 35 54 19 29 989.3 989.3 11.0
28/10:52pm 11.7 4.6 10.8 94 0.5 NE 39 52 21 28 989.2 989.2 11.0
28/10:47pm 11.6 3.7 10.7 94 0.5 NE 43 61 23 33 989.1 989.1 11.0
28/10:37pm 11.6 2.4 10.8 95 0.4 NE 50 61 27 33 988.5 988.5 11.0
28/10:30pm 11.5 2.3 10.9 96 0.3 NE 50 61 27 33 990.6 990.6 10.2
28/10:06pm 11.6 5.2 10.7 94 0.5 NE 35 59 19 32 991.1 991.1 7.0
28/10:00pm 11.6 4.0 10.5 93 0.6 NE 41 54 22 29 991.6 991.6 6.4
28/09:46pm 11.8 4.2 10.4 91 0.7 NE 41 50 22 27 991.3 991.3 4.0
28/09:30pm 11.9 4.6 10.1 89 0.9 NE 39 52 21 28 991.1 991.1 2.8
28/09:01pm 12.6 3.9 9.8 83 1.4 ENE 46 65 25 35 991.0 991.0 1.4
28/09:00pm 12.6 3.4 9.4 81 1.6 ENE 48 65 26 35 990.9 990.9 1.4
28/08:38pm 12.5 3.3 9.5 82 1.5 ENE 48 67 26 36 991.1 991.1 1.4
28/08:30pm 12.4 2.8 9.6 83 1.4 ENE 50 65 27 35 991.3 991.3 1.4
28/08:02pm 12.4 3.9 9.4 82 1.5 ENE 44 63 24 34 992.0 992.0 1.4

Other Formats:

Comma delimited format used in spreadsheet applications
http://www.bom.gov.au/fwo/IDV60801/IDV60801.95839.axf

JavaScript Object Notation format (JSON) in row-major order
http://www.bom.gov.au/fwo/IDV60801/IDV60801.95839.json